createdAt,value
2023-05-03T00:01:44.405Z,12.70
2023-05-03T00:04:11.861Z,12.30
2023-05-03T00:06:39.281Z,12.20
2023-05-03T00:09:06.446Z,12.70
2023-05-03T00:11:34.330Z,12.40
2023-05-03T00:14:01.733Z,12.60
2023-05-03T00:16:28.907Z,12.60
2023-05-03T00:18:56.118Z,12.40
2023-05-03T00:21:23.392Z,12.10
2023-05-03T00:23:50.615Z,12.00
2023-05-03T00:26:17.631Z,11.20
2023-05-03T00:28:44.995Z,11.50
2023-05-03T00:31:12.063Z,10.70
2023-05-03T00:33:40.215Z,11.70
2023-05-03T00:36:09.314Z,9.70
2023-05-03T00:38:37.283Z,9.40
2023-05-03T00:41:05.327Z,9.70
2023-05-03T00:43:32.983Z,9.80
2023-05-03T00:46:15.192Z,9.80
2023-05-03T00:48:45.785Z,8.80
2023-05-03T00:51:15.969Z,10.20
2023-05-03T00:53:43.832Z,8.60
2023-05-03T00:56:12.237Z,8.90
2023-05-03T00:58:40.796Z,9.80
2023-05-03T01:01:09.056Z,9.50
2023-05-03T01:03:41.489Z,7.60
2023-05-03T01:06:28.639Z,8.70
2023-05-03T01:09:02.098Z,8.90
2023-05-03T01:11:41.465Z,9.60
2023-05-03T01:14:09.187Z,9.50
2023-05-03T01:17:05.654Z,10.30
2023-05-03T01:20:05.444Z,8.20
2023-05-03T01:22:41.960Z,10.50
2023-05-03T01:25:10.950Z,10.70
2023-05-03T01:27:40.612Z,10.00
2023-05-03T01:30:09.910Z,8.80
2023-05-03T01:32:53.088Z,9.90
2023-05-03T01:35:42.439Z,8.50
2023-05-03T01:38:10.988Z,8.40
2023-05-03T01:40:47.621Z,9.00
2023-05-03T01:43:17.390Z,8.50
2023-05-03T01:45:45.290Z,7.70
2023-05-03T01:48:16.042Z,9.40
2023-05-03T01:50:43.675Z,9.80
2023-05-03T01:53:10.987Z,8.50
2023-05-03T01:55:38.099Z,9.20
2023-05-03T01:58:05.612Z,8.60
2023-05-03T02:00:33.176Z,8.30
2023-05-03T02:03:00.366Z,7.90
2023-05-03T02:05:27.625Z,8.20
2023-05-03T02:07:54.748Z,7.70
2023-05-03T02:10:22.555Z,7.90
2023-05-03T02:12:49.713Z,9.10
2023-05-03T02:15:18.742Z,8.50
2023-05-03T02:17:47.498Z,7.90
2023-05-03T02:20:14.719Z,7.90
2023-05-03T02:22:42.672Z,7.90
2023-05-03T02:25:09.813Z,7.70
2023-05-03T02:27:38.058Z,8.20
2023-05-03T02:30:06.941Z,8.00
2023-05-03T02:32:36.609Z,9.30
2023-05-03T02:35:03.971Z,8.90
2023-05-03T02:37:31.107Z,9.00
2023-05-03T02:39:58.246Z,9.20
2023-05-03T02:42:25.403Z,8.60
2023-05-03T02:44:52.529Z,8.70
2023-05-03T02:47:19.616Z,9.20
2023-05-03T02:49:48.411Z,11.70
2023-05-03T02:52:16.217Z,10.90
2023-05-03T02:54:43.254Z,9.70
2023-05-03T02:57:11.886Z,9.30
2023-05-03T02:59:38.922Z,9.40
2023-05-03T03:02:06.183Z,8.90
2023-05-03T03:04:33.561Z,8.30
2023-05-03T03:07:01.207Z,8.60
2023-05-03T03:09:28.547Z,8.20
2023-05-03T03:11:55.845Z,7.80
2023-05-03T03:14:23.140Z,7.40
2023-05-03T03:16:51.994Z,6.70
2023-05-03T03:19:19.174Z,8.00
2023-05-03T03:21:46.257Z,7.90
2023-05-03T03:24:13.310Z,8.40
2023-05-03T03:26:40.818Z,8.70
2023-05-03T03:29:10.311Z,8.10
2023-05-03T03:31:37.905Z,7.50
2023-05-03T03:34:05.039Z,10.10
2023-05-03T03:36:32.242Z,9.00
2023-05-03T03:38:59.584Z,10.90
2023-05-03T03:41:27.151Z,9.30
2023-05-03T03:43:55.093Z,8.90
2023-05-03T03:46:22.310Z,7.80
2023-05-03T03:48:50.064Z,8.60
2023-05-03T03:51:17.317Z,8.50
2023-05-03T03:53:45.427Z,8.00
2023-05-03T03:56:12.849Z,9.10
2023-05-03T03:58:40.890Z,9.50
2023-05-03T04:01:08.237Z,10.60
2023-05-03T04:03:35.569Z,11.00
2023-05-03T04:06:02.851Z,10.40
2023-05-03T04:08:30.601Z,12.50
2023-05-03T04:10:57.737Z,11.40
2023-05-03T04:13:25.309Z,9.60
2023-05-03T04:15:57.196Z,10.10
2023-05-03T04:18:24.904Z,8.70
2023-05-03T04:20:52.448Z,8.90
2023-05-03T04:23:21.478Z,8.80
2023-05-03T04:25:48.950Z,8.90
2023-05-03T04:28:17.291Z,8.90
2023-05-03T04:30:47.690Z,9.80
2023-05-03T04:33:17.204Z,9.30
2023-05-03T04:35:44.531Z,10.40
2023-05-03T04:38:14.083Z,10.20
2023-05-03T04:40:41.473Z,10.10
2023-05-03T04:43:09.941Z,10.60
2023-05-03T04:45:39.914Z,10.50
2023-05-03T04:48:09.567Z,10.00
2023-05-03T04:50:36.784Z,9.40
2023-05-03T04:53:04.668Z,9.20
2023-05-03T04:55:33.518Z,9.80
2023-05-03T04:58:02.290Z,9.00
2023-05-03T05:00:29.600Z,7.70
2023-05-03T05:03:01.476Z,8.50
2023-05-03T05:05:30.404Z,8.50
2023-05-03T05:07:58.931Z,8.70
2023-05-03T05:10:28.115Z,8.10
2023-05-03T05:12:55.739Z,8.60
2023-05-03T05:15:22.869Z,8.60
2023-05-03T05:17:50.714Z,8.80
2023-05-03T05:20:19.144Z,8.80
2023-05-03T05:22:47.598Z,8.10
2023-05-03T11:21:06.721Z,5.10
2023-05-03T11:23:33.943Z,4.00
2023-05-03T11:26:01.103Z,2.90
2023-05-03T11:28:28.190Z,3.70
2023-05-03T11:30:55.288Z,4.40
2023-05-03T11:33:22.470Z,3.70
2023-05-03T11:35:49.544Z,6.80
2023-05-03T11:38:16.805Z,6.00
2023-05-03T11:40:43.914Z,5.70
2023-05-03T11:43:11.002Z,4.90
2023-05-03T11:45:42.516Z,4.10
2023-05-03T11:48:11.197Z,4.10
2023-05-03T11:50:55.810Z,3.70
2023-05-03T11:53:24.599Z,2.20
2023-05-03T11:55:56.227Z,3.40
2023-05-03T11:58:27.599Z,2.50
2023-05-03T12:00:57.310Z,3.20
2023-05-03T12:03:32.229Z,2.70
2023-05-03T12:06:02.279Z,4.20
2023-05-03T12:08:36.650Z,3.90
2023-05-03T12:11:06.816Z,3.40
2023-05-03T12:13:38.583Z,3.70
2023-05-03T12:21:31.544Z,2.60
2023-05-03T12:24:01.260Z,2.00
2023-05-03T12:26:28.938Z,3.90
2023-05-03T12:28:57.392Z,4.40
2023-05-03T12:31:24.829Z,3.40
2023-05-03T12:36:25.847Z,1.90
2023-05-03T12:38:56.228Z,1.50
2023-05-03T12:42:04.470Z,1.40
2023-05-03T12:44:17.053Z,1.40
2023-05-03T12:46:45.427Z,1.80
2023-05-03T12:49:15.133Z,2.30
2023-05-03T12:51:43.140Z,2.30
2023-05-03T12:54:12.006Z,2.10
2023-05-03T12:56:40.865Z,1.90
2023-05-03T12:59:39.413Z,3.00
2023-05-03T13:06:59.860Z,1.70
2023-05-03T13:09:37.944Z,2.30
2023-05-03T13:12:15.555Z,1.50
2023-05-03T13:14:43.052Z,1.70
2023-05-03T13:17:10.410Z,1.80
2023-05-03T13:19:37.966Z,2.40
2023-05-03T13:22:05.286Z,1.60
2023-05-03T13:24:32.582Z,1.50
2023-05-03T13:27:00.232Z,1.30
2023-05-03T13:29:27.310Z,1.30
2023-05-03T13:31:54.449Z,1.60
2023-05-03T13:34:21.864Z,1.50
2023-05-03T13:36:49.304Z,1.50
2023-05-03T13:39:16.811Z,1.60
2023-05-03T13:41:44.551Z,1.30
2023-05-03T13:44:12.677Z,1.50
2023-05-03T13:46:41.053Z,1.00
2023-05-03T13:49:08.612Z,1.50
2023-05-03T13:51:36.799Z,1.10
2023-05-03T13:54:06.087Z,1.30
2023-05-03T13:56:34.387Z,0.90
2023-05-03T13:59:01.607Z,1.30
2023-05-03T14:01:29.074Z,1.30
2023-05-03T14:03:56.473Z,1.50
2023-05-03T14:06:23.960Z,1.90
2023-05-03T14:08:54.454Z,1.20
2023-05-03T14:11:28.529Z,1.30
2023-05-03T14:13:57.394Z,1.00
2023-05-03T14:16:40.031Z,1.00
2023-05-03T14:19:11.089Z,1.00
2023-05-03T14:21:38.750Z,1.50
2023-05-03T14:28:38.134Z,1.50
2023-05-03T14:31:06.812Z,1.00
2023-05-03T14:33:34.523Z,1.10
2023-05-03T14:36:01.604Z,1.40
2023-05-03T14:38:29.687Z,1.80
2023-05-03T14:40:57.183Z,1.10
2023-05-03T14:43:24.299Z,1.20
2023-05-03T14:45:51.345Z,1.10
2023-05-03T14:48:18.706Z,1.30
2023-05-03T14:50:50.168Z,1.20
2023-05-03T14:53:17.606Z,1.60
2023-05-03T14:55:45.596Z,1.70
2023-05-03T14:58:16.012Z,1.70
2023-05-03T15:00:43.839Z,1.90
2023-05-03T15:03:12.491Z,1.80
2023-05-03T15:05:44.529Z,1.50
2023-05-03T15:08:15.350Z,1.30
2023-05-03T15:10:44.499Z,1.10
2023-05-03T15:13:16.736Z,2.70
2023-05-03T15:15:44.429Z,2.00
2023-05-03T15:18:11.861Z,1.50
2023-05-03T15:20:39.259Z,1.40
2023-05-03T15:23:06.571Z,1.30
2023-05-03T15:25:33.681Z,2.70
2023-05-03T15:28:03.618Z,3.40
2023-05-03T15:30:32.997Z,1.30
2023-05-03T15:33:01.220Z,0.80
2023-05-03T15:35:28.391Z,1.00
2023-05-03T15:37:55.513Z,1.20
2023-05-03T15:40:25.131Z,1.20
2023-05-03T15:42:53.965Z,1.00
2023-05-03T15:45:23.485Z,1.30
2023-05-03T15:47:50.852Z,1.10
2023-05-03T15:50:18.057Z,1.60
2023-05-03T15:52:46.936Z,2.10
2023-05-03T15:55:14.287Z,4.60
2023-05-03T15:57:41.531Z,2.80
2023-05-03T16:00:09.704Z,2.20
2023-05-03T16:02:37.674Z,1.60
2023-05-03T16:05:05.112Z,1.30
2023-05-03T16:07:32.344Z,1.20
2023-05-03T16:09:59.494Z,1.80
2023-05-03T16:12:27.532Z,1.50
2023-05-03T16:14:55.803Z,1.60
2023-05-03T16:17:23.414Z,1.10
2023-05-03T16:19:50.885Z,2.00
2023-05-03T16:22:17.929Z,2.10
2023-05-03T16:24:47.026Z,2.30
2023-05-03T16:27:14.503Z,2.40
2023-05-03T16:29:41.692Z,3.80
2023-05-03T16:32:10.015Z,4.50
2023-05-03T16:34:37.883Z,4.30
2023-05-03T16:37:05.485Z,5.50
2023-05-03T16:39:32.885Z,6.70
2023-05-03T16:41:59.949Z,6.90
2023-05-03T16:44:27.635Z,9.30
2023-05-03T16:46:54.695Z,13.60
2023-05-03T16:49:21.934Z,11.90
2023-05-03T16:51:49.046Z,4.40
2023-05-03T16:54:16.991Z,1.90
2023-05-03T16:56:44.730Z,2.40
2023-05-03T16:59:12.010Z,4.20
2023-05-03T17:01:39.307Z,3.50
2023-05-03T17:04:07.124Z,3.10
2023-05-03T17:06:34.759Z,3.00
2023-05-03T17:09:01.888Z,2.80
2023-05-03T17:11:29.324Z,3.90
2023-05-03T17:13:56.548Z,4.90
2023-05-03T17:16:23.792Z,2.60
2023-05-03T17:18:50.925Z,1.50
2023-05-03T17:21:19.330Z,1.00
2023-05-03T17:23:46.880Z,4.00
2023-05-03T17:26:14.586Z,29.10
2023-05-03T17:28:43.709Z,26.10
2023-05-03T17:31:10.904Z,12.30
2023-05-03T17:33:38.091Z,3.90
2023-05-03T17:36:05.529Z,2.80
2023-05-03T17:38:34.762Z,4.10
2023-05-03T17:41:11.842Z,3.20
2023-05-03T17:43:39.183Z,2.30
2023-05-03T17:46:12.349Z,14.10
2023-05-03T17:48:48.669Z,33.40
2023-05-03T17:51:16.037Z,14.30
2023-05-03T17:53:43.352Z,19.20
2023-05-03T17:56:15.289Z,10.20
2023-05-03T17:58:42.472Z,4.40
2023-05-03T18:01:11.202Z,5.20
2023-05-03T18:03:38.554Z,3.00
2023-05-03T18:06:09.918Z,3.10
2023-05-03T18:08:37.071Z,2.10
2023-05-03T18:11:04.142Z,1.90
2023-05-03T18:13:34.612Z,2.80
2023-05-03T18:16:01.867Z,2.40
2023-05-03T18:18:29.589Z,2.90
2023-05-03T18:21:01.535Z,2.20
2023-05-03T18:23:28.831Z,2.80
2023-05-03T18:25:56.011Z,5.40
2023-05-03T18:28:24.127Z,4.10
2023-05-03T18:30:58.219Z,4.20
2023-05-03T18:33:25.369Z,5.40
2023-05-03T18:35:53.251Z,3.80
2023-05-03T18:38:21.846Z,2.50
2023-05-03T18:40:50.131Z,1.90
2023-05-03T18:43:17.523Z,2.00
2023-05-03T18:45:44.878Z,2.00
2023-05-03T18:48:12.300Z,2.30
2023-05-03T18:50:43.117Z,1.50
2023-05-03T18:53:14.163Z,2.10
2023-05-03T18:55:42.209Z,1.40
2023-05-03T18:58:09.236Z,1.50
2023-05-03T19:00:36.461Z,1.90
2023-05-03T19:03:04.428Z,3.60
2023-05-03T19:05:31.697Z,3.90
2023-05-03T19:07:58.760Z,2.30
2023-05-03T19:10:25.925Z,2.50
2023-05-03T19:12:55.426Z,1.80
2023-05-03T19:15:22.624Z,1.40
2023-05-03T19:17:49.749Z,1.80
2023-05-03T19:20:17.772Z,1.50
2023-05-03T19:22:45.073Z,1.50
2023-05-03T19:25:12.367Z,1.70
2023-05-03T19:27:39.535Z,1.70
2023-05-03T19:30:07.497Z,1.40
2023-05-03T19:32:39.437Z,1.50
2023-05-03T19:35:10.753Z,1.60
2023-05-03T19:37:37.885Z,2.40
2023-05-03T19:40:06.105Z,2.10
2023-05-03T19:42:33.859Z,1.40
2023-05-03T19:45:03.631Z,1.40
2023-05-03T19:47:30.867Z,1.90
2023-05-03T19:49:58.037Z,1.80
2023-05-03T19:52:25.348Z,1.80
2023-05-03T19:54:52.419Z,2.00
2023-05-03T19:57:19.609Z,1.90
2023-05-03T19:59:48.431Z,1.90
2023-05-03T20:02:15.547Z,2.00
2023-05-03T20:04:42.720Z,1.90
2023-05-03T20:07:09.866Z,2.40
2023-05-03T20:09:36.896Z,1.60
2023-05-03T20:12:06.108Z,1.70
2023-05-03T20:14:33.237Z,2.30
2023-05-03T20:17:00.355Z,2.30
2023-05-03T20:19:27.718Z,3.80
2023-05-03T20:21:55.047Z,4.50
2023-05-03T20:24:22.364Z,5.70
2023-05-03T20:26:49.567Z,5.10
2023-05-03T20:29:16.651Z,6.00
2023-05-03T20:31:44.830Z,6.10
2023-05-03T20:34:13.908Z,7.30
2023-05-03T20:36:41.038Z,9.50
2023-05-03T20:39:09.870Z,9.90
2023-05-03T20:41:38.209Z,12.10
2023-05-03T20:44:05.551Z,11.50
2023-05-03T20:46:32.672Z,7.00
2023-05-03T20:48:59.829Z,6.80
2023-05-03T20:51:26.884Z,6.30
2023-05-03T20:53:53.974Z,7.20
2023-05-03T20:56:21.317Z,5.50
2023-05-03T20:58:48.648Z,5.10
2023-05-03T21:01:15.825Z,5.40
2023-05-03T21:03:42.947Z,4.70
2023-05-03T21:06:10.016Z,5.90
